Hauptseite
METAR-TAF:

METAR-TAF

Flughäfen :

Heeresflugplatz Niederstetten

Niederstetten, Deutschland

Breite: 49-24N, Länge: 009-58E, Höhe: 468 m

Beobachtung

Neuester Wetterbericht von vor 33 Minuten, um 06:20 UTC
Wind 1 kt aus unterschiedlichen Richtungen
Temperatur 11°C
Luftfeuchtigkeit 87%
Luftdruck 1026 hPa
Sichtweite 10 km oder mehr
Leicht bewölkt in der Höhe von 3000 ft
Durchbrochene Bewölkung in der Höhe von 4300 ft

METAR: ETHN 070620Z VRB01KT 9999 FEW030 BKN043 11/09 Q1026 BLU BLU

Zeit: 08:53 (06:53 UTC)

Prognose

Neuester Wetterbericht von vor 2 Stunden und 53 Minuten, um 04:00 UTC
Gültige Prognose vom 07 um 05 UTC bis 07 um 14 UTC
Wind 5 kt aus Südost
Sichtweite 10 km oder mehr
Durchbrochene Bewölkung in der Höhe von 4000 ft

TAF: ETHN 070400Z 0705/0714 14005KT 9999 NSW BKN040

Wetterbeobachtungen und Prognosen von mehr als 4000 Flughäfen (METAR und TAF Bericht).

Die verfügbaren Stationen werden durch gelbe und rote Markierungen auf der Karte dargestellt.

Führen Sie die Maus auf sie, um den Namen der Station zu sehen.

Darauf klicken, um die Beobachtung von Wetterbeobachtungen und Prognosen zu sehen.

Um die Karte zu ändern : klicken Sie auf den grünen Tasten mit einem schwarzen Kreuz Zum Vergrößern, auf den grünen Button mit einem Gedankenstrich zu verkleinern, oder auf die grünen Pfeile für benachbarte Karten.


METAR-TAF: